sensor_id;sensor_type;location;lat;lon;timestamp;temperature;humidity
42617;DHT22;28250;52.320;0.360;2023-01-04T00:01:00;12.30;99.90
42617;DHT22;28250;52.320;0.360;2023-01-04T00:03:27;12.40;99.90
42617;DHT22;28250;52.320;0.360;2023-01-04T00:05:53;12.40;99.90
42617;DHT22;28250;52.320;0.360;2023-01-04T00:08:21;12.40;99.90
42617;DHT22;28250;52.320;0.360;2023-01-04T00:10:47;12.40;99.90
42617;DHT22;28250;52.320;0.360;2023-01-04T00:13:13;12.40;99.90
42617;DHT22;28250;52.320;0.360;2023-01-04T00:15:39;12.40;99.90
42617;DHT22;28250;52.320;0.360;2023-01-04T00:18:05;12.40;99.90
42617;DHT22;28250;52.320;0.360;2023-01-04T00:20:31;12.30;99.90
42617;DHT22;28250;52.320;0.360;2023-01-04T00:22:58;12.30;99.90
42617;DHT22;28250;52.320;0.360;2023-01-04T00:25:27;12.40;99.90
42617;DHT22;28250;52.320;0.360;2023-01-04T00:27:54;12.30;99.90
42617;DHT22;28250;52.320;0.360;2023-01-04T00:30:20;12.40;99.90
42617;DHT22;28250;52.320;0.360;2023-01-04T00:32:46;12.40;99.90
42617;DHT22;28250;52.320;0.360;2023-01-04T00:35:12;12.40;99.90
42617;DHT22;28250;52.320;0.360;2023-01-04T00:37:38;12.30;99.90
42617;DHT22;28250;52.320;0.360;2023-01-04T00:40:05;12.30;99.90
42617;DHT22;28250;52.320;0.360;2023-01-04T00:42:31;12.30;99.90
42617;DHT22;28250;52.320;0.360;2023-01-04T00:44:57;12.40;99.90
42617;DHT22;28250;52.320;0.360;2023-01-04T00:47:23;12.30;99.90
42617;DHT22;28250;52.320;0.360;2023-01-04T00:49:50;12.30;99.90
42617;DHT22;28250;52.320;0.360;2023-01-04T00:52:16;12.40;99.90
42617;DHT22;28250;52.320;0.360;2023-01-04T00:54:42;12.40;99.90
42617;DHT22;28250;52.320;0.360;2023-01-04T00:57:08;12.40;99.90
42617;DHT22;28250;52.320;0.360;2023-01-04T00:59:34;12.40;99.90
42617;DHT22;28250;52.320;0.360;2023-01-04T01:02:00;12.40;99.90
42617;DHT22;28250;52.320;0.360;2023-01-04T01:04:27;12.40;99.90
42617;DHT22;28250;52.320;0.360;2023-01-04T01:06:53;12.30;99.90
42617;DHT22;28250;52.320;0.360;2023-01-04T01:09:19;12.30;99.90
42617;DHT22;28250;52.320;0.360;2023-01-04T01:11:47;12.40;99.90
42617;DHT22;28250;52.320;0.360;2023-01-04T01:14:17;12.40;99.90
42617;DHT22;28250;52.320;0.360;2023-01-04T01:16:44;12.40;99.90
42617;DHT22;28250;52.320;0.360;2023-01-04T01:19:11;12.40;99.90
42617;DHT22;28250;52.320;0.360;2023-01-04T01:21:37;12.40;99.90
42617;DHT22;28250;52.320;0.360;2023-01-04T01:24:04;12.30;99.90
42617;DHT22;28250;52.320;0.360;2023-01-04T01:26:30;12.30;99.90
42617;DHT22;28250;52.320;0.360;2023-01-04T01:28:57;12.30;99.90
42617;DHT22;28250;52.320;0.360;2023-01-04T01:31:24;12.30;99.90
42617;DHT22;28250;52.320;0.360;2023-01-04T01:33:52;12.30;99.90
42617;DHT22;28250;52.320;0.360;2023-01-04T01:36:20;12.30;99.90
42617;DHT22;28250;52.320;0.360;2023-01-04T01:38:48;12.30;99.90
42617;DHT22;28250;52.320;0.360;2023-01-04T01:44:01;12.30;99.90
42617;DHT22;28250;52.320;0.360;2023-01-04T01:46:32;12.30;99.90
42617;DHT22;28250;52.320;0.360;2023-01-04T01:49:02;12.30;99.90
42617;DHT22;28250;52.320;0.360;2023-01-04T01:51:32;12.30;99.90
42617;DHT22;28250;52.320;0.360;2023-01-04T01:54:05;12.30;99.90
42617;DHT22;28250;52.320;0.360;2023-01-04T01:56:36;12.40;99.90
42617;DHT22;28250;52.320;0.360;2023-01-04T01:59:03;12.40;99.90
42617;DHT22;28250;52.320;0.360;2023-01-04T02:01:29;12.40;99.90
42617;DHT22;28250;52.320;0.360;2023-01-04T02:03:55;12.40;99.90
42617;DHT22;28250;52.320;0.360;2023-01-04T02:06:24;12.40;99.90
42617;DHT22;28250;52.320;0.360;2023-01-04T02:08:54;12.40;99.90
42617;DHT22;28250;52.320;0.360;2023-01-04T02:11:20;12.40;99.90
42617;DHT22;28250;52.320;0.360;2023-01-04T02:13:46;12.40;99.90
42617;DHT22;28250;52.320;0.360;2023-01-04T02:33:13;12.40;99.90
42617;DHT22;28250;52.320;0.360;2023-01-04T02:38:46;12.30;99.90
42617;DHT22;28250;52.320;0.360;2023-01-04T02:44:04;12.40;99.90
42617;DHT22;28250;52.320;0.360;2023-01-04T02:46:59;12.30;99.90
42617;DHT22;28250;52.320;0.360;2023-01-04T02:49:27;12.30;99.90
42617;DHT22;28250;52.320;0.360;2023-01-04T02:52:12;12.40;99.90
42617;DHT22;28250;52.320;0.360;2023-01-04T02:54:39;12.30;99.90
42617;DHT22;28250;52.320;0.360;2023-01-04T03:09:09;12.10;99.90
42617;DHT22;28250;52.320;0.360;2023-01-04T03:11:35;12.00;99.90
42617;DHT22;28250;52.320;0.360;2023-01-04T03:14:27;12.00;99.90
42617;DHT22;28250;52.320;0.360;2023-01-04T03:16:56;12.00;99.90
42617;DHT22;28250;52.320;0.360;2023-01-04T03:19:23;12.00;99.90
42617;DHT22;28250;52.320;0.360;2023-01-04T03:22:12;12.00;99.90
42617;DHT22;28250;52.320;0.360;2023-01-04T03:24:59;12.00;99.90
42617;DHT22;28250;52.320;0.360;2023-01-04T03:27:45;12.00;99.90
42617;DHT22;28250;52.320;0.360;2023-01-04T03:30:31;12.00;99.90
42617;DHT22;28250;52.320;0.360;2023-01-04T03:33:18;12.00;99.90
42617;DHT22;28250;52.320;0.360;2023-01-04T03:38:56;12.00;99.90
42617;DHT22;28250;52.320;0.360;2023-01-04T03:41:52;12.00;99.90
42617;DHT22;28250;52.320;0.360;2023-01-04T03:50:52;12.10;99.90
42617;DHT22;28250;52.320;0.360;2023-01-04T03:53:23;12.20;99.90
42617;DHT22;28250;52.320;0.360;2023-01-04T03:55:50;12.20;99.90
42617;DHT22;28250;52.320;0.360;2023-01-04T03:58:18;12.20;99.90
42617;DHT22;28250;52.320;0.360;2023-01-04T04:00:45;12.20;99.90
42617;DHT22;28250;52.320;0.360;2023-01-04T04:03:12;12.20;99.90
42617;DHT22;28250;52.320;0.360;2023-01-04T04:05:38;12.20;99.90
42617;DHT22;28250;52.320;0.360;2023-01-04T04:08:25;12.10;99.90
42617;DHT22;28250;52.320;0.360;2023-01-04T04:10:54;12.10;99.90
42617;DHT22;28250;52.320;0.360;2023-01-04T04:13:46;12.10;99.90
42617;DHT22;28250;52.320;0.360;2023-01-04T04:16:13;12.10;99.90
42617;DHT22;28250;52.320;0.360;2023-01-04T04:18:40;12.10;99.90
42617;DHT22;28250;52.320;0.360;2023-01-04T04:21:06;12.10;99.90
42617;DHT22;28250;52.320;0.360;2023-01-04T04:23:32;12.10;99.90
42617;DHT22;28250;52.320;0.360;2023-01-04T04:25:58;12.00;99.90
42617;DHT22;28250;52.320;0.360;2023-01-04T04:28:24;12.00;99.90
42617;DHT22;28250;52.320;0.360;2023-01-04T04:30:51;12.00;99.90
42617;DHT22;28250;52.320;0.360;2023-01-04T04:33:17;12.00;99.90
42617;DHT22;28250;52.320;0.360;2023-01-04T04:35:43;12.00;99.90
42617;DHT22;28250;52.320;0.360;2023-01-04T04:38:09;12.00;99.90
42617;DHT22;28250;52.320;0.360;2023-01-04T04:40:38;12.00;99.90
42617;DHT22;28250;52.320;0.360;2023-01-04T04:43:23;11.90;99.90
42617;DHT22;28250;52.320;0.360;2023-01-04T04:45:49;11.90;99.90
42617;DHT22;28250;52.320;0.360;2023-01-04T04:48:15;12.00;99.90
42617;DHT22;28250;52.320;0.360;2023-01-04T04:50:41;12.00;99.90
42617;DHT22;28250;52.320;0.360;2023-01-04T04:53:07;12.00;99.90
42617;DHT22;28250;52.320;0.360;2023-01-04T04:55:33;12.00;99.90
42617;DHT22;28250;52.320;0.360;2023-01-04T04:57:59;12.00;99.90
42617;DHT22;28250;52.320;0.360;2023-01-04T05:00:26;12.10;99.90
42617;DHT22;28250;52.320;0.360;2023-01-04T05:02:52;12.10;99.90
42617;DHT22;28250;52.320;0.360;2023-01-04T05:05:18;12.10;99.90
42617;DHT22;28250;52.320;0.360;2023-01-04T05:07:44;12.10;99.90
42617;DHT22;28250;52.320;0.360;2023-01-04T05:10:10;12.10;99.90
42617;DHT22;28250;52.320;0.360;2023-01-04T05:12:36;12.10;99.90
42617;DHT22;28250;52.320;0.360;2023-01-04T05:15:21;12.10;99.90
42617;DHT22;28250;52.320;0.360;2023-01-04T05:17:47;12.20;99.90
42617;DHT22;28250;52.320;0.360;2023-01-04T05:20:13;12.20;99.90
42617;DHT22;28250;52.320;0.360;2023-01-04T05:22:40;12.20;99.90
42617;DHT22;28250;52.320;0.360;2023-01-04T05:25:06;12.20;99.90
42617;DHT22;28250;52.320;0.360;2023-01-04T05:27:33;12.20;99.90
42617;DHT22;28250;52.320;0.360;2023-01-04T05:29:59;12.20;99.90
42617;DHT22;28250;52.320;0.360;2023-01-04T05:32:44;12.20;99.90
42617;DHT22;28250;52.320;0.360;2023-01-04T05:35:10;12.30;99.90
42617;DHT22;28250;52.320;0.360;2023-01-04T05:37:36;12.30;99.90
42617;DHT22;28250;52.320;0.360;2023-01-04T05:40:02;12.30;99.90
42617;DHT22;28250;52.320;0.360;2023-01-04T05:42:29;12.30;99.90
42617;DHT22;28250;52.320;0.360;2023-01-04T05:44:56;12.40;99.90
42617;DHT22;28250;52.320;0.360;2023-01-04T05:47:24;12.40;99.90
42617;DHT22;28250;52.320;0.360;2023-01-04T05:49:51;12.40;99.90
42617;DHT22;28250;52.320;0.360;2023-01-04T05:52:17;12.40;99.90
42617;DHT22;28250;52.320;0.360;2023-01-04T05:54:44;12.40;99.90
42617;DHT22;28250;52.320;0.360;2023-01-04T05:57:11;12.40;99.90
42617;DHT22;28250;52.320;0.360;2023-01-04T05:59:37;12.40;99.90
42617;DHT22;28250;52.320;0.360;2023-01-04T06:02:04;12.50;99.90
42617;DHT22;28250;52.320;0.360;2023-01-04T06:04:30;12.50;99.90
42617;DHT22;28250;52.320;0.360;2023-01-04T06:06:56;12.40;99.90
42617;DHT22;28250;52.320;0.360;2023-01-04T06:09:23;12.40;99.90
42617;DHT22;28250;52.320;0.360;2023-01-04T06:11:51;12.40;99.90
42617;DHT22;28250;52.320;0.360;2023-01-04T06:14:17;12.50;99.90
42617;DHT22;28250;52.320;0.360;2023-01-04T06:16:43;12.50;99.90
42617;DHT22;28250;52.320;0.360;2023-01-04T06:19:09;12.50;99.90
42617;DHT22;28250;52.320;0.360;2023-01-04T06:21:36;12.60;99.90
42617;DHT22;28250;52.320;0.360;2023-01-04T06:24:02;12.50;99.90
42617;DHT22;28250;52.320;0.360;2023-01-04T06:26:28;12.60;99.90
42617;DHT22;28250;52.320;0.360;2023-01-04T06:28:54;12.70;99.90
42617;DHT22;28250;52.320;0.360;2023-01-04T06:31:20;12.70;99.90
42617;DHT22;28250;52.320;0.360;2023-01-04T06:33:46;12.60;99.90
42617;DHT22;28250;52.320;0.360;2023-01-04T06:36:13;12.60;99.90
42617;DHT22;28250;52.320;0.360;2023-01-04T06:38:39;12.60;99.90
42617;DHT22;28250;52.320;0.360;2023-01-04T06:41:05;12.70;99.90
42617;DHT22;28250;52.320;0.360;2023-01-04T06:43:32;12.70;99.90
42617;DHT22;28250;52.320;0.360;2023-01-04T06:45:58;12.70;99.90
42617;DHT22;28250;52.320;0.360;2023-01-04T06:48:26;12.70;99.90
42617;DHT22;28250;52.320;0.360;2023-01-04T06:50:52;12.70;99.90
42617;DHT22;28250;52.320;0.360;2023-01-04T06:53:18;12.70;99.90
42617;DHT22;28250;52.320;0.360;2023-01-04T06:55:45;12.70;99.90
42617;DHT22;28250;52.320;0.360;2023-01-04T06:58:11;12.60;99.90
42617;DHT22;28250;52.320;0.360;2023-01-04T07:00:37;12.60;99.90
42617;DHT22;28250;52.320;0.360;2023-01-04T07:03:03;12.60;99.90
42617;DHT22;28250;52.320;0.360;2023-01-04T07:05:29;12.50;99.90
42617;DHT22;28250;52.320;0.360;2023-01-04T07:07:58;12.50;99.90
42617;DHT22;28250;52.320;0.360;2023-01-04T07:10:25;12.50;99.90
42617;DHT22;28250;52.320;0.360;2023-01-04T07:12:52;12.40;99.90
42617;DHT22;28250;52.320;0.360;2023-01-04T07:15:18;12.50;99.90
42617;DHT22;28250;52.320;0.360;2023-01-04T07:17:47;12.40;99.90
42617;DHT22;28250;52.320;0.360;2023-01-04T07:20:14;12.40;99.90
42617;DHT22;28250;52.320;0.360;2023-01-04T07:22:40;12.40;99.90
42617;DHT22;28250;52.320;0.360;2023-01-04T07:25:06;12.30;99.90
42617;DHT22;28250;52.320;0.360;2023-01-04T07:27:33;12.30;99.90
42617;DHT22;28250;52.320;0.360;2023-01-04T07:29:59;12.30;99.90
42617;DHT22;28250;52.320;0.360;2023-01-04T07:32:26;12.30;99.90
42617;DHT22;28250;52.320;0.360;2023-01-04T07:34:52;12.20;99.90
42617;DHT22;28250;52.320;0.360;2023-01-04T07:37:18;12.20;99.90
42617;DHT22;28250;52.320;0.360;2023-01-04T07:39:44;12.20;99.90
42617;DHT22;28250;52.320;0.360;2023-01-04T07:42:10;12.20;99.90
42617;DHT22;28250;52.320;0.360;2023-01-04T07:44:36;12.10;99.90
42617;DHT22;28250;52.320;0.360;2023-01-04T07:47:03;12.10;99.90
42617;DHT22;28250;52.320;0.360;2023-01-04T07:49:29;12.00;99.90
42617;DHT22;28250;52.320;0.360;2023-01-04T07:51:56;12.00;99.90
42617;DHT22;28250;52.320;0.360;2023-01-04T07:54:22;12.00;99.90
42617;DHT22;28250;52.320;0.360;2023-01-04T07:56:49;12.00;99.90
42617;DHT22;28250;52.320;0.360;2023-01-04T07:59:16;12.00;99.90
42617;DHT22;28250;52.320;0.360;2023-01-04T08:01:43;12.00;99.90
42617;DHT22;28250;52.320;0.360;2023-01-04T08:04:10;12.00;99.90
42617;DHT22;28250;52.320;0.360;2023-01-04T08:06:38;11.90;99.90
42617;DHT22;28250;52.320;0.360;2023-01-04T08:09:05;11.90;99.90
42617;DHT22;28250;52.320;0.360;2023-01-04T08:11:32;12.00;99.90
42617;DHT22;28250;52.320;0.360;2023-01-04T08:13:58;11.90;99.90
42617;DHT22;28250;52.320;0.360;2023-01-04T08:16:26;11.90;99.90
42617;DHT22;28250;52.320;0.360;2023-01-04T08:18:57;11.90;99.90
42617;DHT22;28250;52.320;0.360;2023-01-04T08:21:25;11.90;99.90
42617;DHT22;28250;52.320;0.360;2023-01-04T08:23:53;11.90;99.90
42617;DHT22;28250;52.320;0.360;2023-01-04T08:26:20;11.80;99.90
42617;DHT22;28250;52.320;0.360;2023-01-04T08:28:46;11.80;99.90
42617;DHT22;28250;52.320;0.360;2023-01-04T08:31:15;11.80;99.90
42617;DHT22;28250;52.320;0.360;2023-01-04T08:33:43;11.80;99.90
42617;DHT22;28250;52.320;0.360;2023-01-04T08:36:11;11.80;99.90
42617;DHT22;28250;52.320;0.360;2023-01-04T08:38:41;11.80;99.90
42617;DHT22;28250;52.320;0.360;2023-01-04T08:41:08;11.80;99.90
42617;DHT22;28250;52.320;0.360;2023-01-04T08:43:34;11.80;99.90
42617;DHT22;28250;52.320;0.360;2023-01-04T08:46:01;11.80;99.90
42617;DHT22;28250;52.320;0.360;2023-01-04T08:48:29;11.70;99.90
42617;DHT22;28250;52.320;0.360;2023-01-04T08:50:58;11.70;99.90
42617;DHT22;28250;52.320;0.360;2023-01-04T08:53:26;11.70;99.90
42617;DHT22;28250;52.320;0.360;2023-01-04T08:55:54;11.70;99.90
42617;DHT22;28250;52.320;0.360;2023-01-04T08:58:21;11.60;99.90
42617;DHT22;28250;52.320;0.360;2023-01-04T09:00:48;11.70;99.90
42617;DHT22;28250;52.320;0.360;2023-01-04T09:03:14;11.70;99.90
42617;DHT22;28250;52.320;0.360;2023-01-04T09:05:40;11.70;99.90
42617;DHT22;28250;52.320;0.360;2023-01-04T09:08:06;11.70;99.90
42617;DHT22;28250;52.320;0.360;2023-01-04T09:10:35;11.70;99.90
42617;DHT22;28250;52.320;0.360;2023-01-04T09:13:03;11.60;99.90
42617;DHT22;28250;52.320;0.360;2023-01-04T09:15:30;11.70;99.90
42617;DHT22;28250;52.320;0.360;2023-01-04T09:17:57;11.70;99.90
42617;DHT22;28250;52.320;0.360;2023-01-04T09:20:23;11.70;99.90
42617;DHT22;28250;52.320;0.360;2023-01-04T09:22:49;11.80;99.90
42617;DHT22;28250;52.320;0.360;2023-01-04T09:25:15;11.80;99.90
42617;DHT22;28250;52.320;0.360;2023-01-04T09:27:42;11.70;99.90
42617;DHT22;28250;52.320;0.360;2023-01-04T09:30:09;11.70;99.90
42617;DHT22;28250;52.320;0.360;2023-01-04T09:32:36;11.70;99.90
42617;DHT22;28250;52.320;0.360;2023-01-04T09:35:02;11.70;99.90
42617;DHT22;28250;52.320;0.360;2023-01-04T09:37:28;11.70;99.90
42617;DHT22;28250;52.320;0.360;2023-01-04T09:39:57;11.70;99.90
42617;DHT22;28250;52.320;0.360;2023-01-04T09:42:29;11.70;99.90
42617;DHT22;28250;52.320;0.360;2023-01-04T09:45:05;11.70;99.90
42617;DHT22;28250;52.320;0.360;2023-01-04T09:50:02;11.70;99.90
42617;DHT22;28250;52.320;0.360;2023-01-04T09:55:03;11.80;99.90
42617;DHT22;28250;52.320;0.360;2023-01-04T09:57:34;11.90;99.90
42617;DHT22;28250;52.320;0.360;2023-01-04T10:00:04;11.90;99.90
42617;DHT22;28250;52.320;0.360;2023-01-04T10:05:05;12.00;99.90
42617;DHT22;28250;52.320;0.360;2023-01-04T10:07:32;12.00;99.90
42617;DHT22;28250;52.320;0.360;2023-01-04T10:09:59;12.00;99.90
42617;DHT22;28250;52.320;0.360;2023-01-04T10:17:46;12.20;99.90
42617;DHT22;28250;52.320;0.360;2023-01-04T10:25:43;12.40;99.90
42617;DHT22;28250;52.320;0.360;2023-01-04T10:31:06;12.50;99.90
42617;DHT22;28250;52.320;0.360;2023-01-04T10:36:44;12.70;99.90
42617;DHT22;28250;52.320;0.360;2023-01-04T10:39:14;12.70;99.90
42617;DHT22;28250;52.320;0.360;2023-01-04T10:41:45;12.70;99.90
42617;DHT22;28250;52.320;0.360;2023-01-04T10:44:19;12.70;99.90
42617;DHT22;28250;52.320;0.360;2023-01-04T10:49:23;12.70;99.90
42617;DHT22;28250;52.320;0.360;2023-01-04T10:54:27;12.80;99.90
42617;DHT22;28250;52.320;0.360;2023-01-04T10:57:11;12.80;99.90
42617;DHT22;28250;52.320;0.360;2023-01-04T10:59:46;12.80;99.90
42617;DHT22;28250;52.320;0.360;2023-01-04T11:07:26;12.90;99.90
42617;DHT22;28250;52.320;0.360;2023-01-04T11:09:58;13.00;99.90
42617;DHT22;28250;52.320;0.360;2023-01-04T11:12:28;13.00;99.90
42617;DHT22;28250;52.320;0.360;2023-01-04T11:14:54;13.00;99.90
42617;DHT22;28250;52.320;0.360;2023-01-04T11:17:20;13.00;99.90
42617;DHT22;28250;52.320;0.360;2023-01-04T11:19:48;12.90;99.90
42617;DHT22;28250;52.320;0.360;2023-01-04T11:25:12;12.90;99.90
42617;DHT22;28250;52.320;0.360;2023-01-04T11:27:45;12.90;99.90
42617;DHT22;28250;52.320;0.360;2023-01-04T11:30:16;12.80;99.90
42617;DHT22;28250;52.320;0.360;2023-01-04T11:32:48;12.90;99.90
42617;DHT22;28250;52.320;0.360;2023-01-04T11:38:09;12.90;99.90
42617;DHT22;28250;52.320;0.360;2023-01-04T11:40:39;13.00;99.90
42617;DHT22;28250;52.320;0.360;2023-01-04T11:43:15;13.00;99.90
42617;DHT22;28250;52.320;0.360;2023-01-04T11:48:49;13.10;99.90
42617;DHT22;28250;52.320;0.360;2023-01-04T11:54:03;13.10;99.90
42617;DHT22;28250;52.320;0.360;2023-01-04T11:56:32;13.00;99.90
42617;DHT22;28250;52.320;0.360;2023-01-04T12:01:28;12.90;99.90
42617;DHT22;28250;52.320;0.360;2023-01-04T12:03:55;12.90;99.90
42617;DHT22;28250;52.320;0.360;2023-01-04T12:06:24;12.80;99.90
42617;DHT22;28250;52.320;0.360;2023-01-04T12:08:53;12.80;99.90
42617;DHT22;28250;52.320;0.360;2023-01-04T12:11:27;12.80;99.90
42617;DHT22;28250;52.320;0.360;2023-01-04T12:13:56;12.80;99.90
42617;DHT22;28250;52.320;0.360;2023-01-04T12:16:28;12.90;99.90
42617;DHT22;28250;52.320;0.360;2023-01-04T12:19:04;12.90;99.90
42617;DHT22;28250;52.320;0.360;2023-01-04T12:21:32;12.80;99.90
42617;DHT22;28250;52.320;0.360;2023-01-04T12:23:59;12.90;99.90
42617;DHT22;28250;52.320;0.360;2023-01-04T12:26:26;13.00;99.90
42617;DHT22;28250;52.320;0.360;2023-01-04T12:34:42;13.10;99.90
42617;DHT22;28250;52.320;0.360;2023-01-04T12:37:10;13.20;99.90
42617;DHT22;28250;52.320;0.360;2023-01-04T12:43:24;13.10;99.90
42617;DHT22;28250;52.320;0.360;2023-01-04T12:54:46;13.40;99.90
42617;DHT22;28250;52.320;0.360;2023-01-04T13:00:03;13.40;99.90
42617;DHT22;28250;52.320;0.360;2023-01-04T13:02:30;13.50;99.90
42617;DHT22;28250;52.320;0.360;2023-01-04T13:04:58;13.50;99.90
42617;DHT22;28250;52.320;0.360;2023-01-04T13:09:53;13.60;99.90
42617;DHT22;28250;52.320;0.360;2023-01-04T13:15:06;13.30;99.90
42617;DHT22;28250;52.320;0.360;2023-01-04T13:17:40;13.20;99.90
42617;DHT22;28250;52.320;0.360;2023-01-04T13:20:15;13.20;99.90
42617;DHT22;28250;52.320;0.360;2023-01-04T13:22:47;13.30;99.90
42617;DHT22;28250;52.320;0.360;2023-01-04T13:25:15;13.30;99.90
42617;DHT22;28250;52.320;0.360;2023-01-04T13:30:41;13.50;99.90
42617;DHT22;28250;52.320;0.360;2023-01-04T13:33:15;13.70;99.90
42617;DHT22;28250;52.320;0.360;2023-01-04T13:35:43;13.70;99.90
42617;DHT22;28250;52.320;0.360;2023-01-04T13:38:12;13.50;99.90
42617;DHT22;28250;52.320;0.360;2023-01-04T13:40:43;13.50;99.90
42617;DHT22;28250;52.320;0.360;2023-01-04T13:43:16;13.50;99.90
42617;DHT22;28250;52.320;0.360;2023-01-04T13:48:45;13.20;99.90
42617;DHT22;28250;52.320;0.360;2023-01-04T13:51:16;13.20;99.90
42617;DHT22;28250;52.320;0.360;2023-01-04T13:53:52;13.20;99.90
42617;DHT22;28250;52.320;0.360;2023-01-04T13:56:20;13.20;99.90
42617;DHT22;28250;52.320;0.360;2023-01-04T13:58:49;13.20;99.90
42617;DHT22;28250;52.320;0.360;2023-01-04T14:01:22;13.10;99.90
42617;DHT22;28250;52.320;0.360;2023-01-04T14:03:53;13.10;99.90
42617;DHT22;28250;52.320;0.360;2023-01-04T14:06:22;13.10;99.90
42617;DHT22;28250;52.320;0.360;2023-01-04T14:11:21;13.10;99.90
42617;DHT22;28250;52.320;0.360;2023-01-04T14:19:46;13.00;99.90
42617;DHT22;28250;52.320;0.360;2023-01-04T14:24:58;13.00;99.90
42617;DHT22;28250;52.320;0.360;2023-01-04T14:29:56;12.90;99.90
42617;DHT22;28250;52.320;0.360;2023-01-04T14:32:22;12.80;99.90
42617;DHT22;28250;52.320;0.360;2023-01-04T14:34:48;12.80;99.90
42617;DHT22;28250;52.320;0.360;2023-01-04T14:37:14;12.80;99.90
42617;DHT22;28250;52.320;0.360;2023-01-04T14:39:41;12.80;99.90
42617;DHT22;28250;52.320;0.360;2023-01-04T14:44:53;12.70;99.90
42617;DHT22;28250;52.320;0.360;2023-01-04T14:47:19;12.60;99.90
42617;DHT22;28250;52.320;0.360;2023-01-04T14:49:45;12.60;99.90
42617;DHT22;28250;52.320;0.360;2023-01-04T14:52:19;12.50;99.90
42617;DHT22;28250;52.320;0.360;2023-01-04T14:54:47;12.40;99.90
42617;DHT22;28250;52.320;0.360;2023-01-04T14:57:13;12.40;99.90
42617;DHT22;28250;52.320;0.360;2023-01-04T14:59:40;12.40;99.90
42617;DHT22;28250;52.320;0.360;2023-01-04T15:02:08;12.30;99.90
42617;DHT22;28250;52.320;0.360;2023-01-04T15:04:35;12.20;99.90
42617;DHT22;28250;52.320;0.360;2023-01-04T15:07:01;12.20;99.90
42617;DHT22;28250;52.320;0.360;2023-01-04T15:09:27;12.20;99.90
42617;DHT22;28250;52.320;0.360;2023-01-04T15:11:54;12.10;99.90
42617;DHT22;28250;52.320;0.360;2023-01-04T15:14:20;12.10;99.90
42617;DHT22;28250;52.320;0.360;2023-01-04T15:16:47;12.00;99.90
42617;DHT22;28250;52.320;0.360;2023-01-04T15:19:13;12.00;99.90
42617;DHT22;28250;52.320;0.360;2023-01-04T15:21:40;11.90;99.90
42617;DHT22;28250;52.320;0.360;2023-01-04T15:24:06;11.80;99.90
42617;DHT22;28250;52.320;0.360;2023-01-04T15:26:35;11.80;99.90
42617;DHT22;28250;52.320;0.360;2023-01-04T15:29:01;11.80;99.90
42617;DHT22;28250;52.320;0.360;2023-01-04T15:31:28;11.80;99.90
42617;DHT22;28250;52.320;0.360;2023-01-04T15:33:55;11.80;99.90
42617;DHT22;28250;52.320;0.360;2023-01-04T15:36:21;11.80;99.90
42617;DHT22;28250;52.320;0.360;2023-01-04T15:38:47;11.80;99.90
42617;DHT22;28250;52.320;0.360;2023-01-04T15:41:15;11.80;99.90
42617;DHT22;28250;52.320;0.360;2023-01-04T15:44:01;11.70;99.90
42617;DHT22;28250;52.320;0.360;2023-01-04T15:46:28;11.70;99.90
42617;DHT22;28250;52.320;0.360;2023-01-04T15:48:54;11.60;99.90
42617;DHT22;28250;52.320;0.360;2023-01-04T15:51:21;11.60;99.90
42617;DHT22;28250;52.320;0.360;2023-01-04T15:53:48;11.60;99.90
42617;DHT22;28250;52.320;0.360;2023-01-04T15:56:16;11.50;99.90
42617;DHT22;28250;52.320;0.360;2023-01-04T15:58:43;11.50;99.90
42617;DHT22;28250;52.320;0.360;2023-01-04T16:01:10;11.60;99.90
42617;DHT22;28250;52.320;0.360;2023-01-04T16:03:38;11.50;99.90
42617;DHT22;28250;52.320;0.360;2023-01-04T16:06:07;11.60;99.90
42617;DHT22;28250;52.320;0.360;2023-01-04T16:08:35;11.60;99.90
42617;DHT22;28250;52.320;0.360;2023-01-04T16:11:08;11.60;99.90
42617;DHT22;28250;52.320;0.360;2023-01-04T16:13:37;11.60;99.90
42617;DHT22;28250;52.320;0.360;2023-01-04T16:16:04;11.50;99.90
42617;DHT22;28250;52.320;0.360;2023-01-04T16:18:30;11.50;99.90
42617;DHT22;28250;52.320;0.360;2023-01-04T16:20:56;11.50;99.90
42617;DHT22;28250;52.320;0.360;2023-01-04T16:23:24;11.50;99.90
42617;DHT22;28250;52.320;0.360;2023-01-04T16:26:01;11.50;99.90
42617;DHT22;28250;52.320;0.360;2023-01-04T16:28:30;11.40;99.90
42617;DHT22;28250;52.320;0.360;2023-01-04T16:30:56;11.50;99.90
42617;DHT22;28250;52.320;0.360;2023-01-04T16:33:22;11.50;99.90
42617;DHT22;28250;52.320;0.360;2023-01-04T16:35:48;11.50;99.90
42617;DHT22;28250;52.320;0.360;2023-01-04T16:38:15;11.60;99.90
42617;DHT22;28250;52.320;0.360;2023-01-04T16:40:41;11.60;99.90
42617;DHT22;28250;52.320;0.360;2023-01-04T16:43:07;11.60;99.90
42617;DHT22;28250;52.320;0.360;2023-01-04T16:45:33;11.60;99.90
42617;DHT22;28250;52.320;0.360;2023-01-04T16:47:59;11.70;99.90
42617;DHT22;28250;52.320;0.360;2023-01-04T16:50:25;11.70;99.90
42617;DHT22;28250;52.320;0.360;2023-01-04T16:52:52;11.60;99.90
42617;DHT22;28250;52.320;0.360;2023-01-04T16:55:18;11.50;99.90
42617;DHT22;28250;52.320;0.360;2023-01-04T16:57:44;11.60;99.90
42617;DHT22;28250;52.320;0.360;2023-01-04T17:00:10;11.60;99.90
42617;DHT22;28250;52.320;0.360;2023-01-04T17:02:37;11.70;99.90
42617;DHT22;28250;52.320;0.360;2023-01-04T17:05:04;11.80;99.90
42617;DHT22;28250;52.320;0.360;2023-01-04T17:07:30;11.70;99.90
42617;DHT22;28250;52.320;0.360;2023-01-04T17:09:58;11.60;99.90
42617;DHT22;28250;52.320;0.360;2023-01-04T17:12:25;11.60;99.90
42617;DHT22;28250;52.320;0.360;2023-01-04T17:14:52;11.60;99.90
42617;DHT22;28250;52.320;0.360;2023-01-04T17:17:20;11.50;99.90
42617;DHT22;28250;52.320;0.360;2023-01-04T17:19:46;11.50;99.90
42617;DHT22;28250;52.320;0.360;2023-01-04T17:22:13;11.50;99.90
42617;DHT22;28250;52.320;0.360;2023-01-04T17:24:39;11.50;99.90
42617;DHT22;28250;52.320;0.360;2023-01-04T17:27:09;11.40;99.90
42617;DHT22;28250;52.320;0.360;2023-01-04T17:29:35;11.30;99.90
42617;DHT22;28250;52.320;0.360;2023-01-04T17:32:01;11.20;99.90
42617;DHT22;28250;52.320;0.360;2023-01-04T17:34:27;11.20;99.90
42617;DHT22;28250;52.320;0.360;2023-01-04T17:36:54;11.10;99.90
42617;DHT22;28250;52.320;0.360;2023-01-04T17:39:20;11.00;99.90
42617;DHT22;28250;52.320;0.360;2023-01-04T17:41:47;11.00;99.90
42617;DHT22;28250;52.320;0.360;2023-01-04T17:44:13;11.00;99.90
42617;DHT22;28250;52.320;0.360;2023-01-04T17:46:39;10.90;99.90
42617;DHT22;28250;52.320;0.360;2023-01-04T17:49:06;10.80;99.90
42617;DHT22;28250;52.320;0.360;2023-01-04T17:51:35;10.80;99.90
42617;DHT22;28250;52.320;0.360;2023-01-04T17:54:02;10.90;99.90
42617;DHT22;28250;52.320;0.360;2023-01-04T17:56:30;10.80;99.90
42617;DHT22;28250;52.320;0.360;2023-01-04T17:58:59;10.80;99.90
42617;DHT22;28250;52.320;0.360;2023-01-04T18:01:26;10.70;99.90